Share

Naha City, Japan

Futenma Marine Corps Air Station (ROTM) Elev 246 ft | 26.27 °N, 127.75 °E | Change Station

Current weather conditions updated 6 minutes ago

Scattered Clouds
Scattered Clouds
74 °F
Feels Like 74 °F
N
9
Wind Variable Wind from West
Sunrise 6:03 AM
Sunset 6:54 PM
Moon Waning Gibbous

Tomorrow is forecast to be Cooler than today.

Pressure 29.91 in
Visibility 6.2 miles
Clouds Scattered Clouds 3000 ft
Dew Point 64 °F
Humidity 68%
Rainfall 0.00 in
Snow Depth Not available.
UV 0 out of 16
Pollen Not available.
Air Quality Not available.
Flu Activity Not available.
METAR ROTM 180958Z 26008KT 9999 SCT030 24/18 A2996 RMK SLP129 T02360175

More Conditions Fewer Conditions

Pressure 29.91 in
Visibility 6.2 miles
Clouds Scattered Clouds 3000 ft
Dew Point 64 °F
Humidity 68%
Rainfall 0.00 in
Snow Depth Not available.
UV 0 out of 16
Pollen Not available.
Air Quality Not available.
Flu Activity Not available.
METAR ROTM 180958Z 26008KT 9999 SCT030 24/18 A2996 RMK SLP129 T02360175

More Conditions Fewer Conditions

10-Day Forecast

Almanac

Astronomy

Apr. 18, 2014 Rise Set
Actual Time 6:03 AM JST 6:54 PM JST
Civil Twilight 5:40 AM JST 7:17 PM JST
Nautical Twilight 5:12 AM JST 7:45 PM JST
Astronomical Twilight 4:43 AM JST 8:14 PM JST
Moon 9:51 PM JST 8:05 AM JST
Length of Visible Light 13h 37m
Length of Day
12h 50m
Tomorrow will be 1m 25s longer.
Waning Gibbous, 89% of the Moon is Illuminated
Today
Waning Gibbous
Apr 22
Last Quarter
Apr 29
New
May 6
First Quarter
May 14
Full

Yesterday's Extremes

Country Highs Country Lows

Community

  • SUNRISE THROUGH THE TREES.
    SUNRISE THROUGH THE TREES.
  • Dog Wood Blossoms
    Dog Wood Blossoms
  • Morning Light
    Morning Light
  • New Day
    New Day
  • Lake Michigan Sunrise
    Lake Michigan Sunrise

WunderPhotos

Upload Photos

1,702,300 photos uploaded!

WunderBlogs® & News

Nearby

Snow Depth

Not available.

Coastal Water Temperatures

Place Temperature
No Stations Reporting

Earthquake Activity

City Distance Mag. Time & Date
No recent earthquake activity has been reported nearby.
Minimum magnitude displayed is 2.5.

Nearby Weather Stations

There are no personal weather stations in this area.

What do you think?

We're not finished. Please let us know what you like, what you don't like, and what you are still missing.